EDT,Max TemperatureF,Mean TemperatureF,Min TemperatureF,Max Dew PointF,MeanDew PointF,Min DewpointF,Max Humidity, Mean Humidity, Min Humidity, Max Sea Level PressureIn, Mean Sea Level PressureIn, Min Sea Level PressureIn, Max VisibilityMiles, Mean VisibilityMiles, Min VisibilityMiles, Max Wind SpeedMPH, Mean Wind SpeedMPH, Max Gust SpeedMPH,PrecipitationIn, CloudCover, Events, WindDirDegrees
2013-4-1,51,44,37,45,38,28,100,83,50,30.05,29.95,29.88,10,8,1,18,7,28,0.00,5,,271
2013-4-2,48,39,30,28,20,14,75,52,30,30.19,30.12,30.04,10,10,10,13,5,18,0.00,1,,315
2013-4-3,46,36,26,19,18,14,74,46,32,30.28,30.24,30.18,10,10,10,10,5,16,0.00,0,,1
2013-4-4,44,40,35,36,26,14,100,68,36,30.24,30.10,29.95,10,6,0,12,3,17,0.29,5,Fog-Rain,142
2013-4-5,57,46,35,41,35,28,100,72,38,30.09,30.01,29.94,10,6,0,13,3,21,0.00,4,Fog-Rain,316
2013-4-6,64,50,37,36,32,30,75,46,28,30.20,30.14,30.10,10,10,10,14,4,21,0.00,0,,172
2013-4-7,68,60,51,43,38,32,55,46,35,30.16,30.11,30.08,10,10,10,21,12,32,0.00,1,,209
2013-4-8,71,61,51,50,46,41,71,57,46,30.14,30.11,30.07,10,10,10,18,8,25,0.00,3,,203
2013-4-9,77,65,53,54,51,46,82,60,38,30.23,30.17,30.11,10,10,10,17,6,24,0.00,1,,217
2013-4-10,80,70,60,55,52,48,72,55,36,30.17,30.09,29.98,10,10,10,18,11,25,0.00,0,,224
2013-4-11,77,68,55,59,53,48,100,59,36,29.98,29.88,29.73,10,10,3,16,8,28,0.22,3,Rain-Thunderstorm,179
2013-4-12,59,52,44,59,47,34,100,77,47,29.94,29.79,29.63,10,10,7,21,10,28,0.18,5,Rain-Thunderstorm,239
2013-4-13,62,52,41,37,35,32,81,54,32,30.09,30.01,29.95,10,10,10,18,6,26,0.00,2,,263
2013-4-14,69,56,44,46,36,32,82,45,28,30.10,30.06,30.00,10,10,10,15,5,22,0.00,2,Rain,164
2013-4-15,69,60,50,55,52,46,100,80,53,30.16,30.07,29.98,10,10,7,13,4,18,0.00,6,Rain,158
2013-4-16,78,66,55,59,54,50,82,65,44,30.30,30.22,30.15,10,10,10,16,11,25,0.00,1,,197
2013-4-17,71,64,57,59,57,54,100,89,64,30.37,30.25,30.15,10,9,0,15,5,18,1.11,5,Fog-Rain-Thunderstorm,164
2013-4-18,73,66,60,59,55,50,82,66,46,30.14,30.07,29.91,10,10,10,20,9,26,0.00,2,,171
2013-4-19,66,54,41,63,50,32,100,84,68,30.02,29.84,29.73,10,9,2,18,11,26,0.53,6,Rain,225
2013-4-20,53,42,32,32,29,25,93,61,38,30.31,30.17,30.02,10,10,10,15,8,22,0.00,2,,296
2013-4-21,60,46,33,34,31,27,81,51,34,30.42,30.36,30.32,10,10,10,9,4,16,0.00,0,,87
2013-4-22,66,54,42,41,35,32,71,53,34,30.37,30.29,30.21,10,10,10,12,6,,0.00,1,,146
2013-4-23,69,56,44,43,36,28,57,45,35,30.23,30.16,30.06,10,10,10,10,7,,0.00,0,,179
2013-4-24,64,50,37,57,48,37,100,73,55,30.23,30.05,29.98,10,9,1,24,12,34,0.10,4,Rain,222
2013-4-25,60,46,33,37,34,28,100,69,34,30.37,30.28,30.22,10,10,2,13,3,17,0.00,3,,303
2013-4-26,62,50,39,37,34,30,76,52,34,30.44,30.38,30.34,10,10,10,7,2,,0.00,2,,354
2013-4-27,57,54,51,52,45,34,100,75,47,30.38,30.30,30.18,10,8,4,12,3,18,0.07,8,Rain,164
2013-4-28,55,52,48,54,51,48,100,97,88,30.18,30.07,29.98,10,10,5,21,11,29,0.15,6,Rain-Thunderstorm,174
2013-4-29,62,56,51,55,53,50,100,91,72,30.07,30.04,30.00,10,9,2,9,6,,0.01,7,Rain,228
2013-4-30,77,64,51,57,52,46,100,71,36,30.18,30.10,30.03,10,10,3,10,2,,0.00,4,,164